aviador You're here:

KSLB Decoded Metar

STORM LAKE in IA, USA
Report Time2017-07-24 14:35:00
UTC Time2017-07-24 14:49:59
Flight Rules vfr VFR
WindVRB at 05 kt
Visibility9999 m
Phenomena:N/A
Clouds:N/A
Expected CloudBase > 1,600 ft AGL from Temp-Dew spread
CeilingNone
Temp21°C (ISA +9)
Dew Point17°C (78% RH)
QNH1018 hPa
Density Alt2,628 ft
Elevation1,490 ft
Report Wrong Elevation
Raw Report
KSLB 241435Z AUTO VRB05KT 10SM CLR 21/17 A3007 RMK AO2=

Extra information for KSLB:More info

Metar Taf Metar & Taf Last 4 Metars F.Rules Stats Wind Profile Meteogram Temp Stats Airport Information Weather charts Add Link Nearby VenuesMetar ALERT Operation Metar Decoded Social comments

AIRNAV info for KSLB